x

Ilm3 - 27 Miles Se Of Wrightsville Beach, Nc (41037) Weather Station

8:08pm - Fri 30th Sep 2016 All times are EDT. -4 hours from GMT.

  • Wind
    11mph, 13mph gusts
  • Sea Temp 81°f
  • 空気 Temp 81°f
  • Sea Pressure 1015.9mb
  • Ilm3 - 27 Miles Se Of Wrightsville Beach, Nc
  • Ilm3 - 27 Miles Se Of Wrightsville Beach, Nc

More Historic Weather Station data

Upgrade to MSW Pro to gain access to the past 30 days of data for over 8000 Wavebouys and Weather Stations around the globe.

Join Pro

Comparision Forecast

View Surf forecast
   
Fri 09/30 8:08pm 11 13 mph 1015.9mb 81f 81f
7:08pm 11 16 mph 1015.9mb 81f 81f
6:08pm 16 20 mph 1015.5mb 81f 81f
5:08pm 13 18 mph 1016.8mb 81f 81f
4:08pm 11 18 mph 1015mb 81f 79f
3:08pm 7 11 mph 1017mb 81f 79f
2:08pm 11 16 mph 1017.4mb 81f 78f
1:08pm 7 11 mph 1017.1mb 81f 80f
12:08pm 11 13 mph 1017mb 81f 82f
11:08am 11 16 mph 1017.1mb 81f 83f
10:08am 9 16 mph 1016.8mb 81f 81f
9:08am 13 18 mph 1016.5mb 81f 83f
8:08am 13 16 mph 1015.9mb 81f 82f
7:08am 11 18 mph 1015.7mb 81f 81f
6:08am 13 18 mph 1015.5mb 81f 81f
5:08am 11 16 mph 1015mb 81f 81f
4:08am 13 18 mph 1015.1mb 81f 81f
3:08am 13 18 mph 1015.5mb 81f 81f
2:08am 13 18 mph 1015.8mb 81f 81f
1:08am 13 18 mph 1016.1mb 81f 81f
12:08am 13 18 mph 1016.4mb 81f 81f
Thu 09/29 11:08pm 13 18 mph 1016.8mb 81f 81f
10:08pm 11 16 mph 1016.9mb 81f 81f
9:08pm 13 18 mph 1016.5mb 81f 81f
8:08pm 13 16 mph 1015.9mb 81f 81f
7:08pm 11 13 mph 1016mb 81f 80f
6:08pm 2 4 mph 1016.2mb 81f 81f
5:08pm 9 16 mph 1015.8mb 81f 79f
4:08pm 4 9 mph 1015.9mb 81f 81f
3:08pm 2 4 mph 1015.5mb 81f 81f
2:08pm 7 11 mph 1016.4mb 81f 82f
1:08pm 9 11 mph 1016.5mb 81f 81f
12:08pm 11 16 mph 1017mb 81f 82f
11:08am 11 16 mph 1016.3mb 81f 81f
10:08am 11 16 mph 1016mb 81f 80f
9:08am 9 13 mph 1015.6mb 81f 80f
8:08am 11 16 mph 1015.2mb 81f 81f
7:08am 11 16 mph 1014.9mb 81f 82f
6:08am 9 11 mph 1014.7mb 81f 81f
5:08am 9 11 mph 1014.7mb 81f 81f
4:08am 9 13 mph 1014.6mb 81f 81f
3:08am 11 16 mph 1014.8mb 81f 81f
2:08am 11 18 mph 1015.3mb 81f 81f
1:08am 11 18 mph 1015.6mb 81f 81f
12:08am 13 18 mph 1015.5mb 81f 81f
Wed 09/28 11:08pm 13 16 mph 1016mb 81f 80f
10:08pm 13 16 mph 1015.8mb 82f 81f
9:08pm 9 13 mph 1015.8mb 82f 81f
8:08pm 11 16 mph 1015.1mb 82f 81f
7:08pm 11 13 mph 1014.8mb 82f 81f
6:08pm 9 13 mph 1014.6mb 82f 81f
5:08pm 9 13 mph 1014.4mb 82f 82f
4:08pm 9 11 mph 1014.5mb 82f 81f
2:08pm 7 9 mph 1015.3mb 83f 81f
1:08pm 4 7 mph 1015.6mb 82f 81f
12:08pm 4 7 mph 1015.5mb 82f 80f
11:08am 2
mph
1015.8mb 81f 81f
10:08am 2 4 mph 1015.6mb 81f 80f
9:08am 2 4 mph 1014.7mb 81f 80f
8:08am  -  2 mph 1014.3mb 81f 80f
7:08am 2 7 mph 1014.1mb 81f 79f
6:08am 2 4 mph 1013.6mb 81f 79f
5:08am 2 4 mph 1013.2mb 81f 79f
4:08am 2 7 mph 1013.2mb 81f 79f
3:08am 2 4 mph 1013.2mb 81f 79f
2:08am 2 7 mph 1013.2mb 81f 79f
1:08am 2 4 mph 1013.2mb 81f 79f
12:08am 4 7 mph 1012.9mb 81f 79f
Tue 09/27 11:08pm 7 9 mph 1012.8mb 81f 79f
10:08pm 7 13 mph 1012.5mb 81f 79f
9:08pm 9 11 mph 1012.8mb 81f 79f
8:08pm 9 13 mph 1012.4mb 81f 79f
7:08pm 7 11 mph 1012.1mb 81f 79f
6:08pm 9 11 mph 1011.2mb 82f 80f
5:08pm 9 13 mph 1011.7mb 82f 80f
4:08pm 7 11 mph 1011.9mb 82f 80f
3:08pm 7 11 mph 1012.3mb 82f 80f
2:08pm 7 11 mph 1012.6mb 82f 80f
1:08pm 7 11 mph 1013.2mb 81f 80f
12:08pm 7 11 mph 1014.1mb 81f 80f
11:08am 4 9 mph 1015mb 81f 80f
10:08am 7 11 mph 1014.3mb 81f 79f
9:08am 11 16 mph 1014.1mb 81f 78f
8:08am 4 7 mph 1014.4mb 81f 80f
7:08am 2 7 mph 1014.5mb 81f 80f
6:08am 7 11 mph 1014.1mb 81f 79f
5:08am 7 11 mph 1014.3mb 81f 79f
4:08am 9 13 mph 1014.3mb 81f 80f
3:08am 9 13 mph 1015.1mb 81f 80f
2:08am 13 18 mph 1016.3mb 81f 80f